Macomb, MI

4:33 PM EST on January 29, 2015 (GMT -0500)
Detroit City | Change Station
CLOSE
Current Station
Airport
Location: Detroit,
Elevation: 623 ft
Nearby Weather Stations
Active Advisory: Special Statement

Elev 623 ft 42.41 °N, 83.01 °W | Updated 10 minutes ago

Snow
Snow
33 °F
Feels Like 25 °F
N
10
Wind Variable Wind from NW

Today
High -- | Low -- °F
--% Chance of Precip.
Yesterday
High -- | Low -- °F
Precip. -- in
7:49 AM 5:40 PM
Waxing Gibbous, 77% visible
Pressure 29.79 in
Visibility 1.8 miles
Clouds Few 400 ft
Mostly Cloudy 1200 ft
Overcast 2500 ft
Windchill 25 °F
Dew Point 28 °F
Humidity 82%
Rainfall 0.03 in
Snow Depth Not available.
UV 0 out of 12
Pollen .10 out of 12
Air Quality Not available.
Flu Activity Not available.
SPECI KDET 292123Z 32009KT 1 3/4SM -SN FEW004 BKN012 OVC025 01/M02 A2979 RMK AO2 P0001 T00061022

More Conditions Fewer Conditions

Pressure 29.79 in
Visibility 1.8 miles
Clouds Few 400 ft
Mostly Cloudy 1200 ft
Overcast 2500 ft
Windchill 25 °F
Dew Point 28 °F
Humidity 82%
Rainfall 0.03 in
Snow Depth Not available.
UV 0 out of 12
Pollen .10 out of 12
Air Quality Not available.
Flu Activity Not available.
SPECI KDET 292123Z 32009KT 1 3/4SM -SN FEW004 BKN012 OVC025 01/M02 A2979 RMK AO2 P0001 T00061022

More Conditions Fewer Conditions

10-Day Weather Forecast

Almanac

Astronomy

Jan. 29, 2015 Rise Set
Actual Time
Civil Twilight
Nautical Twilight
Astronomical Twilight
Moon
Length of Visible Light
Length of Day
Tomorrow will be .
, % of the Moon is Illuminated

Today's Extremes

State Highs State Lows

Community

WunderPhotos

Upload Photos

1,791,614 photos uploaded!

WunderBlogs® & News

Nearby

Air Quality

  Air Quality AQ Index Pollutant
Not available.

Snow Depth

Station Depth Elevation

Earthquake Activity

City Distance Mag. Time & Date
Minimum magnitude displayed is 2.5.

Coastal Water Temperatures

Place Temperature

Nearby Weather Stations